createdAt,value
2019-03-04T00:00:41.362Z,10.90
2019-03-04T00:02:43.031Z,11.20
2019-03-04T00:04:45.025Z,11.20
2019-03-04T00:06:46.685Z,11.10
2019-03-04T00:08:48.361Z,11.30
2019-03-04T00:10:50.028Z,11.20
2019-03-04T00:12:51.690Z,11.10
2019-03-04T00:14:53.367Z,11.20
2019-03-04T00:16:55.033Z,11.30
2019-03-04T00:18:56.717Z,11.30
2019-03-04T00:20:58.385Z,11.40
2019-03-04T00:23:00.054Z,11.30
2019-03-04T00:25:01.734Z,11.40
2019-03-04T00:27:03.401Z,11.30
2019-03-04T00:29:05.096Z,11.40
2019-03-04T00:31:06.850Z,11.30
2019-03-04T00:33:08.521Z,11.40
2019-03-04T00:35:10.201Z,11.30
2019-03-04T00:37:11.875Z,11.40
2019-03-04T00:39:13.553Z,11.40
2019-03-04T00:41:15.226Z,11.60
2019-03-04T00:43:16.902Z,11.50
2019-03-04T00:45:18.578Z,11.50
2019-03-04T00:47:20.237Z,11.60
2019-03-04T00:49:21.918Z,11.60
2019-03-04T00:51:23.637Z,11.60
2019-03-04T00:53:25.353Z,11.60
2019-03-04T00:55:27.030Z,11.70
2019-03-04T00:57:28.689Z,11.70
2019-03-04T00:59:31.417Z,11.70
2019-03-04T01:01:33.230Z,11.60
2019-03-04T01:03:34.910Z,11.60
2019-03-04T01:05:36.581Z,11.60
2019-03-04T01:07:38.261Z,11.70
2019-03-04T01:09:39.942Z,11.60
2019-03-04T01:11:41.609Z,11.80
2019-03-04T01:13:43.279Z,11.70
2019-03-04T01:15:44.953Z,11.60
2019-03-04T01:17:46.617Z,11.60
2019-03-04T01:19:48.298Z,11.70
2019-03-04T01:21:49.965Z,11.60
2019-03-04T01:23:51.663Z,11.70
2019-03-04T01:25:53.409Z,11.70
2019-03-04T01:27:55.078Z,11.80
2019-03-04T01:29:57.065Z,11.80
2019-03-04T01:31:58.733Z,11.90
2019-03-04T01:34:00.397Z,11.70
2019-03-04T01:36:02.086Z,11.90
2019-03-04T01:38:03.759Z,12.00
2019-03-04T01:40:07.714Z,12.00
2019-03-04T01:42:09.385Z,12.10
2019-03-04T01:44:11.056Z,12.10
2019-03-04T01:46:12.749Z,12.00
2019-03-04T01:48:14.414Z,11.90
2019-03-04T01:50:16.421Z,12.00
2019-03-04T01:52:18.082Z,11.90
2019-03-04T01:54:19.746Z,12.10
2019-03-04T01:56:21.425Z,12.00
2019-03-04T01:58:23.086Z,12.10
2019-03-04T02:00:24.761Z,12.10
2019-03-04T02:02:26.770Z,12.00
2019-03-04T02:04:28.439Z,12.00
2019-03-04T02:06:30.119Z,12.10
2019-03-04T02:08:31.777Z,12.10
2019-03-04T02:10:33.453Z,12.20
2019-03-04T02:12:35.129Z,12.10
2019-03-04T02:14:36.798Z,12.20
2019-03-04T02:16:38.478Z,12.10
2019-03-04T02:18:40.397Z,12.00
2019-03-04T02:20:42.076Z,12.10
2019-03-04T02:22:43.926Z,12.10
2019-03-04T02:24:45.603Z,12.20
2019-03-04T02:26:47.286Z,12.10
2019-03-04T02:28:48.962Z,12.20
2019-03-04T02:30:50.926Z,12.20
2019-03-04T02:32:52.594Z,12.10
2019-03-04T02:34:54.267Z,12.10
2019-03-04T02:36:55.949Z,12.10
2019-03-04T02:38:57.618Z,12.30
2019-03-04T02:40:59.298Z,12.30
2019-03-04T02:43:00.961Z,12.40
2019-03-04T02:45:02.921Z,12.30
2019-03-04T02:47:04.598Z,12.20
2019-03-04T02:49:06.261Z,12.20
2019-03-04T02:51:08.443Z,12.10
2019-03-04T02:53:10.103Z,12.30
2019-03-04T02:55:12.426Z,12.10
2019-03-04T02:57:14.095Z,12.20
2019-03-04T02:59:15.763Z,12.40
2019-03-04T03:01:17.546Z,12.30
2019-03-04T03:03:19.467Z,12.50
2019-03-04T03:05:21.133Z,12.40
2019-03-04T03:07:22.805Z,12.30
2019-03-04T03:09:24.507Z,12.40
2019-03-04T03:11:26.255Z,12.30
2019-03-04T03:13:28.256Z,12.40
2019-03-04T03:15:29.960Z,12.50
2019-03-04T03:17:31.632Z,12.30
2019-03-04T03:19:33.602Z,12.50
2019-03-04T03:21:35.281Z,12.40
2019-03-04T03:23:36.945Z,12.40
2019-03-04T03:25:38.627Z,12.40
2019-03-04T03:27:40.302Z,12.40
2019-03-04T03:29:41.973Z,12.30
2019-03-04T03:31:43.659Z,12.30
2019-03-04T03:33:45.427Z,12.20
2019-03-04T03:35:47.474Z,12.20
2019-03-04T03:37:49.246Z,12.20
2019-03-04T03:39:50.985Z,12.10
2019-03-04T03:41:52.931Z,12.20
2019-03-04T03:43:54.598Z,12.20
2019-03-04T03:45:56.623Z,12.00
2019-03-04T03:47:58.296Z,12.00
2019-03-04T03:49:59.973Z,12.00
2019-03-04T03:52:01.669Z,12.00
2019-03-04T03:54:03.421Z,12.00
2019-03-04T03:56:05.097Z,12.00
2019-03-04T03:58:07.058Z,11.90
2019-03-04T04:00:12.124Z,11.90
2019-03-04T04:02:13.812Z,11.80
2019-03-04T04:04:15.482Z,11.80
2019-03-04T04:06:17.165Z,11.70
2019-03-04T04:08:18.831Z,11.70
2019-03-04T04:10:20.517Z,11.80
2019-03-04T04:12:22.195Z,11.80
2019-03-04T04:14:23.859Z,11.80
2019-03-04T04:16:25.535Z,11.80
2019-03-04T04:18:27.538Z,11.90
2019-03-04T04:20:29.217Z,11.80
2019-03-04T04:22:30.899Z,11.80
2019-03-04T04:24:32.563Z,11.80
2019-03-04T04:26:34.489Z,11.80
2019-03-04T04:28:36.562Z,11.80
2019-03-04T04:30:39.217Z,11.90
2019-03-04T04:32:40.906Z,11.90
2019-03-04T04:34:42.578Z,11.90
2019-03-04T04:36:44.270Z,12.00
2019-03-04T04:38:45.937Z,12.00
2019-03-04T04:40:47.610Z,11.90
2019-03-04T04:42:49.290Z,12.00
2019-03-04T04:44:50.958Z,11.90
2019-03-04T04:46:54.130Z,11.80
2019-03-04T04:48:56.109Z,11.80
2019-03-04T04:50:57.779Z,11.90
2019-03-04T04:52:59.462Z,11.80
2019-03-04T04:55:01.135Z,11.80
2019-03-04T04:57:02.910Z,11.80
2019-03-04T04:59:04.572Z,11.80
2019-03-04T05:01:06.238Z,11.60
2019-03-04T05:03:08.227Z,11.60
2019-03-04T05:05:09.899Z,11.70
2019-03-04T05:07:11.577Z,11.40
2019-03-04T05:09:13.249Z,11.50
2019-03-04T05:11:14.921Z,11.40
2019-03-04T05:13:16.614Z,11.40
2019-03-04T05:15:18.295Z,11.30
2019-03-04T05:17:19.978Z,11.40
2019-03-04T05:19:21.941Z,11.40
2019-03-04T05:21:23.610Z,11.40
2019-03-04T05:23:25.290Z,11.20
2019-03-04T05:25:26.959Z,11.30
2019-03-04T05:27:28.647Z,11.30
2019-03-04T05:29:30.614Z,11.40
2019-03-04T05:31:32.568Z,11.20
2019-03-04T05:33:34.245Z,11.30
2019-03-04T05:35:35.929Z,11.40
2019-03-04T05:37:37.607Z,11.30
2019-03-04T05:39:39.274Z,11.40
2019-03-04T05:41:40.941Z,11.60
2019-03-04T05:43:42.606Z,11.60
2019-03-04T05:45:44.269Z,11.60
2019-03-04T05:47:45.953Z,11.80
2019-03-04T05:49:47.613Z,11.70
2019-03-04T05:51:49.430Z,11.70
2019-03-04T05:53:51.106Z,11.60
2019-03-04T05:55:52.775Z,11.60
2019-03-04T05:57:54.460Z,11.60
2019-03-04T05:59:56.125Z,11.60
2019-03-04T06:02:06.594Z,11.50
2019-03-04T06:04:09.994Z,11.40
2019-03-04T06:06:11.666Z,11.30
2019-03-04T06:08:13.345Z,11.40
2019-03-04T06:10:15.009Z,11.40
2019-03-04T06:12:16.682Z,11.30
2019-03-04T06:14:18.356Z,11.30
2019-03-04T06:16:20.026Z,11.30
2019-03-04T06:18:22.054Z,11.40
2019-03-04T06:20:23.995Z,11.40
2019-03-04T06:22:25.662Z,11.40
2019-03-04T06:24:27.338Z,11.40
2019-03-04T06:26:29.006Z,11.50
2019-03-04T06:28:31.006Z,11.50
2019-03-04T06:30:32.669Z,11.50
2019-03-04T06:32:34.630Z,11.50
2019-03-04T06:34:36.398Z,11.60
2019-03-04T06:36:38.073Z,11.70
2019-03-04T06:38:39.749Z,11.70
2019-03-04T06:40:41.418Z,12.10
2019-03-04T06:42:43.090Z,12.30
2019-03-04T06:44:44.765Z,12.50
2019-03-04T06:46:46.681Z,12.60
2019-03-04T06:48:48.368Z,12.70
2019-03-04T06:50:53.751Z,12.60
2019-03-04T06:52:56.689Z,12.70
2019-03-04T06:55:14.738Z,13.00
2019-03-04T06:57:28.515Z,12.90
2019-03-04T06:59:38.417Z,13.00
2019-03-04T07:01:44.287Z,13.00
2019-03-04T07:04:00.876Z,12.80
2019-03-04T07:06:02.563Z,13.10
2019-03-04T07:08:04.309Z,13.10
2019-03-04T07:10:06.006Z,13.10
2019-03-04T07:12:07.910Z,13.20
2019-03-04T07:14:09.585Z,13.20
2019-03-04T07:16:11.256Z,13.20
2019-03-04T07:18:13.217Z,13.20
2019-03-04T07:20:14.902Z,13.00
2019-03-04T07:22:16.575Z,13.20
2019-03-04T07:24:18.250Z,13.60
2019-03-04T07:26:19.913Z,13.80
2019-03-04T07:28:21.587Z,13.50
2019-03-04T07:30:23.253Z,13.50
2019-03-04T07:32:24.912Z,13.50
2019-03-04T07:34:26.586Z,13.40
2019-03-04T07:36:28.258Z,13.50
2019-03-04T07:39:09.253Z,13.50
2019-03-04T07:41:10.914Z,13.40
2019-03-04T07:43:12.583Z,14.50
2019-03-04T07:45:14.308Z,14.80
2019-03-04T07:47:15.985Z,14.90
2019-03-04T07:49:17.670Z,14.80
2019-03-04T07:51:19.334Z,14.60
2019-03-04T07:53:20.998Z,14.30
2019-03-04T07:55:22.670Z,14.10
2019-03-04T07:57:24.555Z,13.60
2019-03-04T07:59:26.279Z,13.20
2019-03-04T08:01:27.996Z,12.90
2019-03-04T08:03:29.667Z,12.30
2019-03-04T08:05:31.346Z,11.80
2019-03-04T08:07:52.706Z,8.80
2019-03-04T08:10:28.265Z,7.90
2019-03-04T08:13:09.316Z,7.60
2019-03-04T08:15:10.990Z,7.60
2019-03-04T08:17:12.659Z,7.60
2019-03-04T08:19:14.334Z,7.60
2019-03-04T08:21:16.019Z,7.70
2019-03-04T08:23:17.688Z,7.80
2019-03-04T08:25:19.361Z,8.00
2019-03-04T08:27:21.021Z,8.10
2019-03-04T08:29:23.009Z,8.10
2019-03-04T08:31:24.684Z,8.30
2019-03-04T08:33:26.597Z,8.30
2019-03-04T08:35:28.265Z,8.40
2019-03-04T08:37:30.229Z,8.50
2019-03-04T08:39:31.895Z,8.50
2019-03-04T08:41:33.570Z,8.70
2019-03-04T08:43:35.237Z,8.80
2019-03-04T08:45:36.915Z,8.90
2019-03-04T08:47:38.630Z,8.90
2019-03-04T08:49:40.302Z,8.90
2019-03-04T08:51:41.979Z,8.90
2019-03-04T08:53:43.650Z,8.80
2019-03-04T08:55:45.737Z,8.80
2019-03-04T08:57:47.481Z,8.80
2019-03-04T08:59:49.149Z,8.80
2019-03-04T09:01:51.078Z,8.80
2019-03-04T09:03:52.746Z,8.80
2019-03-04T09:05:54.424Z,8.80
2019-03-04T09:07:56.087Z,8.80
2019-03-04T09:09:57.750Z,8.80
2019-03-04T09:11:59.426Z,8.90
2019-03-04T09:14:01.100Z,9.00
2019-03-04T09:16:02.784Z,9.10
2019-03-04T09:18:04.772Z,9.20
2019-03-04T09:20:07.093Z,9.30
2019-03-04T09:22:09.009Z,9.40
2019-03-04T09:24:10.669Z,9.40
2019-03-04T09:26:12.644Z,9.40
2019-03-04T09:28:14.316Z,9.40
2019-03-04T09:30:16.174Z,9.40
2019-03-04T09:32:17.841Z,9.50
2019-03-04T09:34:19.531Z,9.50
2019-03-04T09:36:21.222Z,9.50
2019-03-04T09:38:23.170Z,9.60
2019-03-04T09:40:25.970Z,9.70
2019-03-04T09:42:28.321Z,10.00
2019-03-04T09:44:29.985Z,10.80
2019-03-04T09:46:31.662Z,11.30
2019-03-04T09:48:33.339Z,11.60
2019-03-04T09:50:35.001Z,11.80
2019-03-04T09:52:36.680Z,11.60
2019-03-04T09:54:38.346Z,11.30
2019-03-04T09:56:40.026Z,11.70
2019-03-04T09:58:41.694Z,11.30
2019-03-04T10:01:34.674Z,11.20
2019-03-04T10:04:34.051Z,11.10
2019-03-04T10:06:58.629Z,11.10
2019-03-04T10:09:37.453Z,12.30
2019-03-04T10:11:51.059Z,12.70
2019-03-04T10:14:14.198Z,13.00
2019-03-04T10:16:46.669Z,13.40
2019-03-04T10:19:30.098Z,12.40
2019-03-04T10:22:05.301Z,12.00
2019-03-04T10:24:43.446Z,12.60
2019-03-04T10:27:42.401Z,12.50
2019-03-04T10:30:01.646Z,11.90
2019-03-04T10:32:44.829Z,11.70
2019-03-04T10:35:30.441Z,12.20
2019-03-04T10:38:07.318Z,12.00
2019-03-04T10:40:34.665Z,11.80
2019-03-04T10:42:49.971Z,11.70
2019-03-04T10:45:12.373Z,11.60
2019-03-04T10:47:14.044Z,11.60
2019-03-04T10:49:15.713Z,11.40
2019-03-04T10:51:18.748Z,11.40
2019-03-04T10:53:20.553Z,11.30
2019-03-04T10:55:22.558Z,11.40
2019-03-04T10:57:24.229Z,11.20
2019-03-04T10:59:25.888Z,11.10
2019-03-04T11:01:30.664Z,11.00
2019-03-04T11:03:31.138Z,11.10
2019-03-04T11:05:32.801Z,11.10
2019-03-04T11:07:34.572Z,12.10
2019-03-04T11:09:36.553Z,12.90
2019-03-04T11:11:38.827Z,13.20
2019-03-04T11:13:40.817Z,13.40
2019-03-04T11:15:42.485Z,12.90
2019-03-04T11:17:44.733Z,12.40
2019-03-04T11:19:46.406Z,12.30
2019-03-04T11:21:48.176Z,12.00
2019-03-04T11:23:49.852Z,11.80
2019-03-04T11:25:51.527Z,11.60
2019-03-04T11:27:53.490Z,11.40
2019-03-04T11:29:55.450Z,11.20
2019-03-04T11:31:57.518Z,11.10
2019-03-04T11:33:59.470Z,11.00
2019-03-04T11:36:01.153Z,10.60
2019-03-04T11:38:03.353Z,10.00
2019-03-04T11:40:13.129Z,9.50
2019-03-04T11:42:14.796Z,9.00
2019-03-04T11:44:16.465Z,8.60
2019-03-04T11:46:20.914Z,9.10
2019-03-04T11:48:22.598Z,9.50
2019-03-04T11:50:24.271Z,9.90
2019-03-04T11:52:25.947Z,9.80
2019-03-04T11:54:28.121Z,10.40
2019-03-04T11:56:29.790Z,10.80
2019-03-04T11:58:32.274Z,10.60
2019-03-04T12:00:40.024Z,10.20
2019-03-04T12:02:41.738Z,10.10
2019-03-04T12:04:43.416Z,10.20
2019-03-04T12:06:45.085Z,11.10
2019-03-04T12:08:46.766Z,11.70
2019-03-04T12:10:48.749Z,11.70
2019-03-04T12:12:50.438Z,11.10
2019-03-04T12:14:52.119Z,10.70
2019-03-04T12:16:53.809Z,11.10
2019-03-04T12:18:55.489Z,11.40
2019-03-04T12:20:57.156Z,11.40
2019-03-04T12:22:58.854Z,11.70
2019-03-04T12:25:00.517Z,11.40
2019-03-04T12:27:02.186Z,11.60
2019-03-04T12:29:03.872Z,11.60
2019-03-04T12:31:05.773Z,11.40
2019-03-04T12:33:07.749Z,11.20
2019-03-04T12:35:10.933Z,11.00
2019-03-04T12:37:12.615Z,10.60
2019-03-04T12:39:14.293Z,10.30
2019-03-04T12:41:15.965Z,10.00
2019-03-04T12:43:17.641Z,9.00
2019-03-04T12:45:19.418Z,7.60
2019-03-04T12:47:21.094Z,7.30
2019-03-04T12:49:22.876Z,7.10
2019-03-04T12:51:24.543Z,7.10
2019-03-04T12:53:26.223Z,6.90
2019-03-04T12:55:27.891Z,6.90
2019-03-04T12:57:29.558Z,6.80
2019-03-04T12:59:31.232Z,6.80
2019-03-04T13:01:32.907Z,6.70
2019-03-04T13:03:34.585Z,6.60
2019-03-04T13:05:36.258Z,6.60
2019-03-04T13:07:37.937Z,6.50
2019-03-04T13:09:39.609Z,6.60
2019-03-04T13:11:41.282Z,6.50
2019-03-04T13:13:42.982Z,6.50
2019-03-04T13:15:45.022Z,6.60
2019-03-04T13:17:46.977Z,6.70
2019-03-04T13:19:48.658Z,6.90
2019-03-04T13:21:50.334Z,6.90
2019-03-04T13:23:52.265Z,6.90
2019-03-04T13:25:53.938Z,6.90
2019-03-04T13:27:55.901Z,6.90
2019-03-04T13:29:57.577Z,7.00
2019-03-04T13:31:59.311Z,7.20
2019-03-04T13:34:01.051Z,7.40
2019-03-04T13:36:04.634Z,7.70
2019-03-04T13:38:06.313Z,8.00
2019-03-04T13:40:09.054Z,8.30
2019-03-04T13:42:10.937Z,8.90
2019-03-04T13:44:12.938Z,9.80
2019-03-04T13:46:14.604Z,10.20
2019-03-04T13:48:16.273Z,10.40
2019-03-04T13:50:19.160Z,10.80
2019-03-04T13:52:20.830Z,10.70
2019-03-04T13:54:22.833Z,11.10
2019-03-04T13:56:24.508Z,11.00
2019-03-04T13:58:26.181Z,11.10
2019-03-04T14:00:28.338Z,10.50
2019-03-04T14:02:30.009Z,10.00
2019-03-04T14:04:31.695Z,9.50
2019-03-04T14:06:33.365Z,9.30
2019-03-04T14:08:35.313Z,9.40
2019-03-04T14:10:37.029Z,9.50
2019-03-04T14:12:38.701Z,9.50
2019-03-04T14:14:40.408Z,9.30
2019-03-04T14:16:42.073Z,9.50
2019-03-04T14:18:43.741Z,9.30
2019-03-04T14:20:45.435Z,9.10
2019-03-04T14:22:56.972Z,9.10
2019-03-04T14:24:50.986Z,9.30
2019-03-04T14:26:52.658Z,9.20
2019-03-04T14:28:54.326Z,8.90
2019-03-04T14:30:56.020Z,8.80
2019-03-04T14:32:57.686Z,8.60
2019-03-04T14:34:59.368Z,8.60
2019-03-04T14:37:03.209Z,8.50
2019-03-04T14:39:05.478Z,8.50
2019-03-04T14:41:07.153Z,8.30
2019-03-04T14:43:08.825Z,8.30
2019-03-04T14:45:12.874Z,8.10
2019-03-04T14:47:14.542Z,8.30
2019-03-04T14:49:16.205Z,8.20
2019-03-04T14:51:19.059Z,8.30
2019-03-04T14:53:20.954Z,8.40
2019-03-04T14:55:22.637Z,8.40
2019-03-04T14:57:24.373Z,8.30
2019-03-04T14:59:26.184Z,8.50
2019-03-04T15:01:27.870Z,8.80
2019-03-04T15:03:29.550Z,9.30
2019-03-04T15:05:31.227Z,9.70
2019-03-04T15:07:32.902Z,9.50
2019-03-04T15:09:34.593Z,9.20
2019-03-04T15:11:36.274Z,8.80
2019-03-04T15:13:37.946Z,8.70
2019-03-04T15:15:39.638Z,8.60
2019-03-04T15:17:41.613Z,8.50
2019-03-04T15:19:43.289Z,8.30
2019-03-04T15:21:44.962Z,8.20
2019-03-04T15:23:46.631Z,8.20
2019-03-04T15:25:48.309Z,8.10
2019-03-04T15:27:49.982Z,8.20
2019-03-04T15:29:51.656Z,8.20
2019-03-04T15:31:53.689Z,8.20
2019-03-04T15:33:55.353Z,8.30
2019-03-04T15:35:57.043Z,8.20
2019-03-04T15:37:58.706Z,8.20
2019-03-04T15:40:00.453Z,8.20
2019-03-04T15:42:02.158Z,8.20
2019-03-04T15:44:04.110Z,8.20
2019-03-04T15:46:06.094Z,8.20
2019-03-04T15:48:07.773Z,8.20
2019-03-04T15:50:09.553Z,8.20
2019-03-04T15:52:11.284Z,8.30
2019-03-04T15:54:13.001Z,8.30
2019-03-04T15:56:14.941Z,8.30
2019-03-04T15:58:16.904Z,8.30
2019-03-04T16:00:18.573Z,8.20
2019-03-04T16:02:20.513Z,8.30
2019-03-04T16:04:22.291Z,8.30
2019-03-04T16:06:24.475Z,8.20
2019-03-04T16:08:26.137Z,8.20
2019-03-04T16:10:29.261Z,8.00
2019-03-04T16:12:31.551Z,8.00
2019-03-04T16:14:33.236Z,8.00
2019-03-04T16:16:34.997Z,7.90
2019-03-04T16:18:36.707Z,8.00
2019-03-04T16:20:38.737Z,8.00
2019-03-04T16:22:40.417Z,8.00
2019-03-04T16:24:42.374Z,8.00
2019-03-04T16:26:44.050Z,8.10
2019-03-04T16:28:45.724Z,8.10
2019-03-04T16:30:48.397Z,8.10
2019-03-04T16:32:50.066Z,8.10
2019-03-04T16:34:51.727Z,8.10
2019-03-04T16:36:53.415Z,8.10
2019-03-04T16:38:55.073Z,8.10
2019-03-04T16:40:56.995Z,8.10
2019-03-04T16:42:58.659Z,8.10
2019-03-04T16:45:00.337Z,8.10
2019-03-04T16:47:02.461Z,8.10
2019-03-04T16:49:04.154Z,8.10
2019-03-04T16:51:05.918Z,8.10
2019-03-04T16:53:08.182Z,8.10
2019-03-04T16:55:11.577Z,8.10
2019-03-04T16:57:13.259Z,8.10
2019-03-04T16:59:14.939Z,8.10
2019-03-04T17:01:16.637Z,8.10
2019-03-04T17:03:18.640Z,8.10
2019-03-04T17:05:20.314Z,8.00
2019-03-04T17:07:22.260Z,8.00
2019-03-04T17:09:23.933Z,8.00
2019-03-04T17:11:25.611Z,7.90
2019-03-04T17:13:27.278Z,7.90
2019-03-04T17:15:29.293Z,7.90
2019-03-04T17:17:30.981Z,7.90
2019-03-04T17:19:32.658Z,7.90
2019-03-04T17:21:34.342Z,7.80
2019-03-04T17:23:36.014Z,7.80
2019-03-04T17:25:37.685Z,7.70
2019-03-04T17:27:41.429Z,7.70
2019-03-04T17:29:42.936Z,7.70
2019-03-04T17:31:44.874Z,7.60
2019-03-04T17:33:46.818Z,7.60
2019-03-04T17:35:48.507Z,7.60
2019-03-04T17:37:50.537Z,7.60
2019-03-04T17:39:52.598Z,7.60
2019-03-04T17:41:54.281Z,7.60
2019-03-04T17:43:55.967Z,7.60
2019-03-04T17:45:57.650Z,7.60
2019-03-04T17:47:59.338Z,7.60
2019-03-04T17:50:01.010Z,7.60
2019-03-04T17:52:02.699Z,7.60
2019-03-04T17:54:04.385Z,7.60
2019-03-04T17:56:06.050Z,7.60
2019-03-04T17:58:07.737Z,7.60
2019-03-04T18:00:11.386Z,7.70
2019-03-04T18:02:13.066Z,7.70
2019-03-04T18:04:15.023Z,7.60
2019-03-04T18:06:16.694Z,7.60
2019-03-04T18:08:18.693Z,7.60
2019-03-04T18:10:20.763Z,7.70
2019-03-04T18:12:22.441Z,7.70
2019-03-04T18:14:24.433Z,7.70
2019-03-04T18:16:26.097Z,7.60
2019-03-04T18:18:27.848Z,7.60
2019-03-04T18:20:34.525Z,7.60
2019-03-04T18:22:33.197Z,7.60
2019-03-04T18:24:34.870Z,7.60
2019-03-04T18:26:51.586Z,7.60
2019-03-04T18:29:17.025Z,7.60
2019-03-04T18:31:35.674Z,7.50
2019-03-04T18:34:02.417Z,7.50
2019-03-04T18:36:23.416Z,7.40
2019-03-04T18:38:55.481Z,7.40
2019-03-04T18:41:31.121Z,7.40
2019-03-04T18:43:51.622Z,7.40
2019-03-04T18:46:31.081Z,7.40
2019-03-04T18:48:58.153Z,7.40
2019-03-04T18:50:59.821Z,7.50
2019-03-04T18:53:01.520Z,7.40
2019-03-04T18:55:03.221Z,7.30
2019-03-04T18:57:04.902Z,7.30
2019-03-04T18:59:07.090Z,7.30
2019-03-04T19:01:08.766Z,7.30
2019-03-04T19:03:10.445Z,7.30
2019-03-04T19:05:12.117Z,7.30
2019-03-04T19:07:13.791Z,7.30
2019-03-04T19:09:15.483Z,7.30
2019-03-04T19:11:17.443Z,7.30
2019-03-04T19:13:19.125Z,7.30
2019-03-04T19:15:20.807Z,7.30
2019-03-04T19:17:22.474Z,7.20
2019-03-04T19:19:24.493Z,7.20
2019-03-04T19:21:26.158Z,7.20
2019-03-04T19:23:27.834Z,7.20
2019-03-04T19:25:29.506Z,7.10
2019-03-04T19:27:31.192Z,7.10
2019-03-04T19:29:32.880Z,7.00
2019-03-04T19:31:34.810Z,6.90
2019-03-04T19:33:36.498Z,6.90
2019-03-04T19:35:38.206Z,6.80
2019-03-04T19:37:39.885Z,6.80
2019-03-04T19:39:41.569Z,6.70
2019-03-04T19:41:43.233Z,6.70
2019-03-04T19:43:44.909Z,6.70
2019-03-04T19:45:46.586Z,6.60
2019-03-04T19:47:48.262Z,6.60
2019-03-04T19:49:49.941Z,6.60
2019-03-04T19:51:51.617Z,6.60
2019-03-04T19:53:53.595Z,6.50
2019-03-04T19:55:55.257Z,6.60
2019-03-04T19:57:56.929Z,6.60
2019-03-04T19:59:58.614Z,6.50
2019-03-04T20:02:02.169Z,6.50
2019-03-04T20:04:04.089Z,6.50
2019-03-04T20:06:05.769Z,6.40
2019-03-04T20:08:07.441Z,6.40
2019-03-04T20:10:09.633Z,6.40
2019-03-04T20:12:11.310Z,6.40
2019-03-04T20:14:12.999Z,6.40
2019-03-04T20:16:14.691Z,6.40
2019-03-04T20:18:16.445Z,6.40
2019-03-04T20:20:18.125Z,6.50
2019-03-04T20:22:21.927Z,6.40
2019-03-04T20:24:23.393Z,6.40
2019-03-04T20:26:25.067Z,6.40
2019-03-04T20:28:28.650Z,6.40
2019-03-04T20:30:30.337Z,6.40
2019-03-04T20:32:32.024Z,6.40
2019-03-04T20:34:33.710Z,6.50
2019-03-04T20:36:35.754Z,6.60
2019-03-04T20:38:41.123Z,6.60
2019-03-04T20:40:43.053Z,6.70
2019-03-04T20:42:44.733Z,6.80
2019-03-04T20:44:46.727Z,6.70
2019-03-04T20:46:48.594Z,6.80
2019-03-04T20:48:50.269Z,6.80
2019-03-04T20:50:52.058Z,6.80
2019-03-04T20:52:53.737Z,6.80
2019-03-04T20:54:55.421Z,6.80
2019-03-04T20:56:57.094Z,6.80
2019-03-04T20:58:58.778Z,6.60
2019-03-04T21:01:00.470Z,6.70
2019-03-04T21:03:02.533Z,6.70
2019-03-04T21:05:05.014Z,6.70
2019-03-04T21:07:06.929Z,6.70
2019-03-04T21:09:09.404Z,6.70
2019-03-04T21:11:11.409Z,6.70
2019-03-04T21:13:23.607Z,6.60
2019-03-04T21:15:27.307Z,6.60
2019-03-04T21:17:29.258Z,6.60
2019-03-04T21:19:30.926Z,6.50
2019-03-04T21:21:32.609Z,6.40
2019-03-04T21:23:34.281Z,6.40
2019-03-04T21:25:38.579Z,6.40
2019-03-04T21:27:40.249Z,6.40
2019-03-04T21:29:55.165Z,6.30
2019-03-04T21:32:08.296Z,6.30
2019-03-04T21:35:01.420Z,6.20
2019-03-04T21:37:11.102Z,6.30
2019-03-04T21:39:12.790Z,6.30
2019-03-04T21:41:25.077Z,6.30
2019-03-04T21:43:32.856Z,6.40
2019-03-04T21:46:24.822Z,6.50
2019-03-04T21:48:32.280Z,6.40
2019-03-04T21:51:00.853Z,6.40
2019-03-04T21:53:30.094Z,6.40
2019-03-04T21:55:39.178Z,6.50
2019-03-04T21:57:50.053Z,6.40
2019-03-04T21:59:51.730Z,6.50
2019-03-04T22:01:58.379Z,6.50
2019-03-04T22:04:00.325Z,6.60
2019-03-04T22:06:02.699Z,6.50
2019-03-04T22:08:04.382Z,6.60
2019-03-04T22:10:07.221Z,6.70
2019-03-04T22:12:11.242Z,6.70
2019-03-04T22:14:12.917Z,6.80
2019-03-04T22:16:14.599Z,6.80
2019-03-04T22:18:16.279Z,6.80
2019-03-04T22:20:17.966Z,6.80
2019-03-04T22:22:19.748Z,6.80
2019-03-04T22:24:21.414Z,6.90
2019-03-04T22:26:23.371Z,6.90
2019-03-04T22:28:25.067Z,6.90
2019-03-04T22:30:27.169Z,6.80
2019-03-04T22:32:28.870Z,6.90
2019-03-04T22:34:30.914Z,6.90
2019-03-04T22:36:32.681Z,6.80
2019-03-04T22:38:34.701Z,6.90
2019-03-04T22:40:36.383Z,6.90
2019-03-04T22:42:38.683Z,6.80
2019-03-04T22:44:40.601Z,6.90
2019-03-04T22:46:42.378Z,6.80
2019-03-04T22:48:44.075Z,6.80
2019-03-04T22:50:46.175Z,6.80
2019-03-04T22:52:47.937Z,6.70
2019-03-04T22:54:49.859Z,6.50
2019-03-04T22:56:51.633Z,6.60
2019-03-04T22:58:53.309Z,6.60
2019-03-04T23:01:36.017Z,6.60
2019-03-04T23:03:37.801Z,6.50
2019-03-04T23:05:39.478Z,6.50
2019-03-04T23:07:46.933Z,6.50
2019-03-04T23:09:58.610Z,6.50
2019-03-04T23:12:10.917Z,6.60
2019-03-04T23:14:20.425Z,6.70
2019-03-04T23:16:24.762Z,6.80
2019-03-04T23:18:26.445Z,6.80
2019-03-04T23:20:28.120Z,6.80
2019-03-04T23:22:29.993Z,6.90
2019-03-04T23:24:31.677Z,6.80
2019-03-04T23:26:33.342Z,6.90
2019-03-04T23:28:35.022Z,6.90
2019-03-04T23:30:36.693Z,6.80
2019-03-04T23:32:38.365Z,6.80
2019-03-04T23:34:40.322Z,6.90
2019-03-04T23:36:42.003Z,6.90
2019-03-04T23:38:43.714Z,6.90
2019-03-04T23:40:45.989Z,6.80
2019-03-04T23:42:47.656Z,6.80
2019-03-04T23:44:50.238Z,6.80
2019-03-04T23:46:52.173Z,6.80
2019-03-04T23:48:53.857Z,6.80
2019-03-04T23:50:55.542Z,6.90
2019-03-04T23:52:57.205Z,6.90
2019-03-04T23:54:59.166Z,6.80
2019-03-04T23:57:00.841Z,6.80
2019-03-04T23:59:02.806Z,6.70
